createdAt,value
2022-10-14T00:00:42.707Z,93433.03
2022-10-14T00:05:45.331Z,93360.31
2022-10-14T00:10:48.320Z,93359.13
2022-10-14T00:15:52.248Z,93368.25
2022-10-14T00:20:56.072Z,93372.69
2022-10-14T00:25:59.177Z,93332.63
2022-10-14T00:31:07.455Z,93344.50
2022-10-14T00:36:12.757Z,93304.66
2022-10-14T00:41:17.808Z,93270.34
2022-10-14T00:46:23.483Z,93217.47
2022-10-14T00:51:31.784Z,93201.63
2022-10-14T00:56:34.915Z,93377.50
2022-10-14T01:01:40.514Z,93775.09
2022-10-14T01:06:48.668Z,93982.91
2022-10-14T01:12:26.852Z,94119.88
2022-10-14T01:17:31.463Z,94555.00
2022-10-14T01:22:37.366Z,94691.84
2022-10-14T01:28:00.438Z,94684.78
2022-10-14T01:33:10.123Z,94790.59
2022-10-14T01:38:16.095Z,94919.03
2022-10-14T01:43:19.219Z,94948.19
2022-10-14T01:48:26.018Z,95089.16
2022-10-14T01:53:31.600Z,95298.47
2022-10-14T01:58:35.275Z,95470.91
2022-10-14T02:03:42.050Z,95661.06
2022-10-14T02:08:57.223Z,95866.22
2022-10-14T02:14:07.718Z,95978.75
2022-10-14T02:19:21.347Z,96075.03
2022-10-14T02:24:28.066Z,96177.06
2022-10-14T02:29:32.119Z,96339.94
2022-10-14T02:34:37.642Z,96519.53
2022-10-14T02:39:46.038Z,96916.75
2022-10-14T02:44:55.424Z,97444.41
2022-10-14T02:49:59.356Z,97715.69
2022-10-14T02:55:01.939Z,97852.34
2022-10-14T03:00:05.745Z,97870.78
2022-10-14T03:05:11.675Z,97953.56
2022-10-14T03:10:15.560Z,98287.47
2022-10-14T03:15:18.418Z,98207.31
2022-10-14T03:20:23.667Z,98246.97
2022-10-14T03:25:31.766Z,98455.78
2022-10-14T03:30:44.791Z,98767.69
2022-10-14T03:35:53.706Z,99104.28
2022-10-14T03:41:04.651Z,99382.81
2022-10-14T03:46:07.875Z,99729.25
2022-10-14T03:51:12.683Z,100030.56
2022-10-14T03:56:18.057Z,99926.59
2022-10-14T04:01:21.546Z,100015.66
2022-10-14T04:06:49.392Z,100273.09
2022-10-14T04:11:55.907Z,100459.91
2022-10-14T04:17:14.613Z,100632.78
2022-10-14T04:22:22.952Z,100784.41
2022-10-14T04:27:30.092Z,100970.47
2022-10-14T04:32:38.437Z,101072.72
2022-10-14T04:37:43.722Z,101151.31
2022-10-14T04:42:57.315Z,101046.38
2022-10-14T04:48:05.576Z,100631.66
2022-10-14T04:53:17.546Z,100582.25
2022-10-14T04:58:34.694Z,100616.69
2022-10-14T05:03:37.502Z,100656.34
2022-10-14T05:08:41.794Z,100647.34
2022-10-14T05:13:47.556Z,100655.41
2022-10-14T05:18:51.232Z,100693.16
2022-10-14T05:23:55.455Z,100804.47
2022-10-14T05:28:59.442Z,100937.53
2022-10-14T05:34:02.152Z,101073.22
2022-10-14T05:39:09.522Z,101148.13
2022-10-14T05:44:13.191Z,101215.91
2022-10-14T05:49:15.951Z,100745.31
2022-10-14T05:54:21.162Z,100754.16
2022-10-14T05:59:29.547Z,100767.47
2022-10-14T06:04:33.333Z,100787.84
2022-10-14T06:09:40.522Z,100779.09
2022-10-14T06:14:45.002Z,100688.09
2022-10-14T06:19:47.592Z,100743.63
2022-10-14T06:24:51.524Z,100690.53
2022-10-14T06:29:54.076Z,100619.28
2022-10-14T06:34:56.627Z,100244.59
2022-10-14T06:40:00.759Z,100086.88
2022-10-14T06:45:03.339Z,99726.34
2022-10-14T06:50:06.501Z,99582.75
2022-10-14T06:55:10.626Z,99399.34
2022-10-14T07:00:13.883Z,99323.63
2022-10-14T07:05:16.942Z,99281.38
2022-10-14T07:10:20.855Z,99306.19
2022-10-14T07:15:23.447Z,99304.38
2022-10-14T07:20:26.012Z,99346.69
2022-10-14T07:25:29.902Z,99409.38
2022-10-14T07:30:32.535Z,99505.59
2022-10-14T07:35:35.448Z,99675.69
2022-10-14T07:40:39.538Z,99817.88
2022-10-14T07:45:44.025Z,99944.28
2022-10-14T07:50:50.754Z,99960.38
2022-10-14T07:55:57.927Z,100080.50
2022-10-14T08:01:00.506Z,100178.91
2022-10-14T08:06:05.277Z,100284.81
2022-10-14T08:11:11.618Z,100259.38
2022-10-14T08:16:16.183Z,100387.78
2022-10-14T08:21:19.369Z,100647.75
2022-10-14T08:26:24.636Z,100705.00
2022-10-14T08:31:27.238Z,100697.31
2022-10-14T08:36:29.845Z,100826.91
2022-10-14T08:42:05.834Z,101318.88
2022-10-14T08:47:13.037Z,101972.16
2022-10-14T08:52:19.064Z,102833.56
2022-10-14T08:57:26.600Z,103920.31
2022-10-14T09:02:36.791Z,104928.34
2022-10-14T09:07:39.459Z,105946.38
2022-10-14T09:12:43.806Z,106974.88
2022-10-14T09:17:50.905Z,108022.28
2022-10-14T09:22:59.474Z,108863.09
2022-10-14T09:28:04.531Z,109495.25
2022-10-14T09:33:07.701Z,110092.69
2022-10-14T09:38:11.538Z,110459.59
2022-10-14T09:43:18.516Z,110796.38
2022-10-14T09:48:32.252Z,111028.09
2022-10-14T09:53:38.423Z,111190.28
2022-10-14T09:58:44.515Z,111396.81
2022-10-14T10:03:47.937Z,111453.59
2022-10-14T10:08:58.435Z,111676.63
2022-10-14T10:14:17.359Z,112060.97
2022-10-14T10:19:28.666Z,112218.25
2022-10-14T10:24:32.243Z,112142.28
2022-10-14T10:29:36.229Z,111683.13
2022-10-14T10:35:04.528Z,110954.69
2022-10-14T10:40:20.064Z,109615.63
2022-10-14T10:45:35.591Z,107272.78
2022-10-14T10:50:45.258Z,101103.09
2022-10-14T10:55:56.175Z,94374.19
2022-10-14T11:01:02.936Z,92629.06
2022-10-14T11:06:08.181Z,92116.59
2022-10-14T11:11:31.334Z,91968.59
2022-10-14T11:16:38.986Z,91935.56
2022-10-14T11:21:45.170Z,91903.31
2022-10-14T11:26:57.601Z,91877.75
2022-10-14T11:32:07.612Z,91774.84
2022-10-14T11:37:17.588Z,91731.47
2022-10-14T11:42:27.104Z,91724.56
2022-10-14T11:47:37.008Z,91971.78
2022-10-14T11:52:41.183Z,92097.31
2022-10-14T11:57:46.458Z,92230.22
2022-10-14T12:02:54.125Z,92337.94
2022-10-14T12:08:03.868Z,92398.13
2022-10-14T12:13:09.174Z,92444.53
2022-10-14T12:18:13.275Z,92660.28
2022-10-14T12:23:32.732Z,92784.97
2022-10-14T12:28:35.821Z,92848.53
2022-10-14T12:34:18.825Z,93074.50
2022-10-14T12:39:35.559Z,93255.63
2022-10-14T12:44:43.368Z,93292.13
2022-10-14T12:49:50.994Z,93441.75
2022-10-14T12:54:54.009Z,93538.78
2022-10-14T12:59:58.676Z,93593.97
2022-10-14T13:05:06.710Z,93642.47
2022-10-14T13:10:28.576Z,93708.88
2022-10-14T13:15:38.826Z,93744.00
2022-10-14T13:20:53.644Z,93739.28
2022-10-14T13:26:01.786Z,93756.69
2022-10-14T13:31:06.507Z,93789.81
2022-10-14T13:36:16.519Z,93808.28
2022-10-14T13:41:30.765Z,93833.47
2022-10-14T13:46:37.565Z,93866.94
2022-10-14T13:51:50.781Z,93898.44
2022-10-14T13:57:34.554Z,93946.31
2022-10-14T14:02:27.212Z,93960.00
2022-10-14T14:08:21.767Z,93949.72
2022-10-14T14:12:57.432Z,93992.06
2022-10-14T14:17:59.979Z,93979.91
2022-10-14T14:23:04.794Z,93964.09
2022-10-14T14:28:07.338Z,93972.81
2022-10-14T14:33:13.031Z,93981.31
2022-10-14T14:38:27.691Z,93965.13
2022-10-14T14:43:35.855Z,93999.22
2022-10-14T14:48:42.112Z,93986.66
2022-10-14T14:53:54.403Z,94008.41
2022-10-14T14:58:58.991Z,94004.09
2022-10-14T15:04:11.893Z,94020.06
2022-10-14T15:09:23.874Z,93997.38
2022-10-14T15:14:33.978Z,93992.34
2022-10-14T15:19:38.786Z,93963.56
2022-10-14T15:25:01.301Z,93911.28
2022-10-14T15:30:23.893Z,93894.28
2022-10-14T15:35:26.835Z,93852.00
2022-10-14T15:40:32.086Z,93814.06
2022-10-14T15:45:34.643Z,93811.19
2022-10-14T15:50:39.401Z,93781.59
2022-10-14T15:55:44.069Z,93744.78
2022-10-14T16:00:47.413Z,93739.13
2022-10-14T16:05:50.064Z,93710.09
2022-10-14T16:10:54.982Z,93651.56
2022-10-14T16:16:00.089Z,93629.50
2022-10-14T16:21:02.624Z,93574.09
2022-10-14T16:26:07.443Z,93508.50
2022-10-14T16:31:10.330Z,93456.78
2022-10-14T16:36:15.169Z,93433.50
2022-10-14T16:41:19.040Z,93376.91
2022-10-14T16:46:41.587Z,93310.69
2022-10-14T16:51:44.898Z,93253.41
2022-10-14T16:56:54.526Z,93221.88
2022-10-14T17:01:57.296Z,93164.72
2022-10-14T17:07:06.861Z,93111.22
2022-10-14T17:12:13.812Z,93022.03
2022-10-14T17:17:16.797Z,92939.81
2022-10-14T17:22:20.825Z,92874.19
2022-10-14T17:27:25.046Z,92799.66
2022-10-14T17:32:28.577Z,92668.69
2022-10-14T17:37:31.379Z,92591.22
2022-10-14T17:42:35.256Z,92565.69
2022-10-14T17:47:37.793Z,92516.38
2022-10-14T17:52:40.333Z,92449.81
2022-10-14T17:57:44.260Z,92386.38
2022-10-14T18:02:46.832Z,92396.31
2022-10-14T18:07:49.418Z,92429.72
2022-10-14T18:12:54.283Z,92408.53
2022-10-14T18:17:57.305Z,92366.47
2022-10-14T18:23:03.073Z,92335.59
2022-10-14T18:28:07.002Z,92327.59
2022-10-14T18:33:09.554Z,92283.09
2022-10-14T18:38:12.090Z,92300.63
2022-10-14T18:43:15.996Z,92276.16
2022-10-14T18:48:21.878Z,92305.91
2022-10-14T18:53:24.574Z,92298.66
2022-10-14T18:58:28.483Z,92312.94
2022-10-14T19:03:32.526Z,92321.72
2022-10-14T19:08:36.949Z,92358.09
2022-10-14T19:13:41.659Z,92433.91
2022-10-14T19:18:44.267Z,92538.53
2022-10-14T19:23:47.061Z,92733.38
2022-10-14T19:28:52.037Z,93888.19
2022-10-14T19:33:55.683Z,95295.91
2022-10-14T19:38:59.449Z,96569.69
2022-10-14T19:44:03.484Z,97784.41
2022-10-14T19:49:06.453Z,98699.31
2022-10-14T19:54:10.427Z,99335.19
2022-10-14T19:59:14.785Z,99960.03
2022-10-14T20:04:20.788Z,100101.22
2022-10-14T20:09:25.352Z,100182.47
2022-10-14T20:14:30.297Z,100344.94
2022-10-14T20:19:32.870Z,100593.22
2022-10-14T20:24:39.772Z,100751.41
2022-10-14T20:29:43.714Z,100920.09
2022-10-14T20:34:46.334Z,100987.16
2022-10-14T20:39:49.411Z,101177.00
2022-10-14T20:44:53.297Z,101377.28
2022-10-14T20:49:55.927Z,101663.59
2022-10-14T20:54:58.522Z,101791.97
2022-10-14T21:00:02.544Z,101887.25
2022-10-14T21:05:05.542Z,101966.59
2022-10-14T21:10:09.216Z,102069.13
2022-10-14T21:15:13.591Z,102048.69
2022-10-14T21:20:16.349Z,102013.63
2022-10-14T21:25:18.942Z,101859.94
2022-10-14T21:30:22.879Z,101911.13
2022-10-14T21:35:25.703Z,101975.56
2022-10-14T21:40:28.314Z,101968.09
2022-10-14T21:45:32.381Z,102330.75
2022-10-14T21:50:35.002Z,102768.03
2022-10-14T21:55:37.593Z,102812.69
2022-10-14T22:00:41.518Z,102564.09
2022-10-14T22:05:44.236Z,102500.97
2022-10-14T22:10:47.619Z,102292.81
2022-10-14T22:15:51.573Z,102117.13
2022-10-14T22:21:04.823Z,102006.84
2022-10-14T22:26:08.575Z,101879.03
2022-10-14T22:31:14.142Z,101551.41
2022-10-14T22:36:21.109Z,101196.72
2022-10-14T22:41:30.981Z,100997.38
2022-10-14T22:46:39.068Z,100897.66
2022-10-14T22:51:42.062Z,100865.75
2022-10-14T22:56:44.703Z,100875.38
2022-10-14T23:01:48.790Z,100943.84
2022-10-14T23:06:51.696Z,101072.69
2022-10-14T23:11:54.304Z,101412.59
2022-10-14T23:16:58.221Z,101736.38
2022-10-14T23:22:00.806Z,101885.66
2022-10-14T23:27:03.378Z,102101.81
2022-10-14T23:32:07.431Z,102276.44
2022-10-14T23:37:10.088Z,102395.41
2022-10-14T23:42:12.667Z,102594.72
2022-10-14T23:47:16.815Z,102668.66
2022-10-14T23:52:19.381Z,102894.47
2022-10-14T23:57:22.148Z,103120.72
